Time;durP1;ratioP1;P1;durP2;ratioP2;P2;SDS_P1;SDS_P2;PMS_P1;PMS_P2;Temp;Humidity;BMP_temperature;BMP_pressure;BME280_temperature;BME280_humidity;BME280_pressure;Samples;Min_cycle;Max_cycle;Signal;HPM_P1;HPM_P2
2024/04/04 00:04:07;;;;;;;10.50;7.10;;;;;;;5.56;79.15;99388.58;217304;1259;139675;-68
2024/04/04 00:09:09;;;;;;;9.20;6.80;;;;;;;5.57;79.29;99386.54;217157;1259;140645;-68
2024/04/04 00:14:11;;;;;;;10.90;7.00;;;;;;;5.56;79.78;99380.60;217165;1259;140345;-69
2024/04/04 00:19:14;;;;;;;8.20;6.70;;;;;;;5.55;79.58;99382.03;219971;1260;141021;-70
2024/04/04 00:24:18;;;;;;;6.60;4.60;;;;;;;5.55;79.34;99374.98;217553;1260;139819;-72
2024/04/04 00:29:21;;;;;;;7.00;4.50;;;;;;;5.54;79.62;99369.95;217947;1260;139728;-70
2024/04/04 00:34:24;;;;;;;7.60;5.30;;;;;;;5.49;79.35;99367.07;217050;1260;140825;-70
2024/04/04 00:39:26;;;;;;;11.60;5.80;;;;;;;5.44;79.12;99364.21;217832;1261;139570;-70
2024/04/04 00:44:46;;;;;;;9.50;5.40;;;;;;;5.41;78.99;99371.98;216932;1262;139671;-70
2024/04/04 00:49:49;;;;;;;9.60;5.40;;;;;;;5.38;79.30;99376.74;217116;1262;139427;-69
2024/04/04 00:54:54;;;;;;;9.00;5.30;;;;;;;5.33;79.01;99371.11;217074;1262;140539;-69
2024/04/04 00:59:59;;;;;;;8.10;5.90;;;;;;;5.29;79.13;99370.84;217583;1261;139583;-69
2024/04/04 01:05:02;;;;;;;19.50;10.90;;;;;;;5.25;79.24;99361.70;217925;1262;139734;-69
2024/04/04 01:10:08;;;;;;;7.60;6.30;;;;;;;5.23;79.55;99367.02;217183;1263;140928;-70
2024/04/04 01:15:12;;;;;;;;;;;;;;;5.23;79.54;99369.39;217190;1262;139738;-69
2024/04/04 01:20:15;;;;;;;15.40;8.80;;;;;;;5.23;79.86;99371.63;217514;1262;126346;-69
2024/04/04 01:25:18;;;;;;;20.70;9.70;;;;;;;5.27;80.25;99374.54;217175;1263;140407;-69
2024/04/04 01:30:21;;;;;;;12.30;8.40;;;;;;;5.33;80.47;99368.14;217280;1262;140143;-71
2024/04/04 01:35:25;;;;;;;20.20;10.30;;;;;;;5.40;80.25;99366.87;217185;1257;140519;-70
2024/04/04 01:40:29;;;;;;;18.80;10.90;;;;;;;5.45;80.48;99369.21;217107;1263;140235;-70
2024/04/04 01:45:34;;;;;;;13.30;8.30;;;;;;;5.46;80.51;99367.58;217250;1262;140286;-69
2024/04/04 01:50:41;;;;;;;11.20;8.30;;;;;;;5.48;80.81;99369.44;217281;1260;140396;-69
2024/04/04 01:55:44;;;;;;;14.10;7.30;;;;;;;5.50;80.54;99367.01;217988;1260;144045;-69
2024/04/04 02:00:48;;;;;;;11.40;8.10;;;;;;;5.55;80.80;99360.02;219779;1259;140339;-70
2024/04/04 02:05:50;;;;;;;10.80;8.90;;;;;;;5.56;81.04;99349.41;219792;1257;140990;-69
2024/04/04 02:10:53;;;;;;;9.10;6.80;;;;;;;5.57;81.01;99343.17;219015;1262;139906;-69
2024/04/04 02:15:56;;;;;;;10.60;7.70;;;;;;;5.57;81.42;99336.95;217232;1262;139801;-68
2024/04/04 02:21:00;;;;;;;9.90;6.90;;;;;;;5.56;81.63;99337.86;217079;1262;140358;-69
2024/04/04 02:26:03;;;;;;;11.30;6.90;;;;;;;5.59;81.69;99335.48;217101;1261;141184;-71
2024/04/04 02:31:07;;;;;;;9.10;7.40;;;;;;;5.58;82.03;99335.92;217673;1258;139971;-70
2024/04/04 02:36:11;;;;;;;12.30;6.90;;;;;;;5.57;82.13;99328.58;218114;1258;141308;-70
2024/04/04 02:41:17;;;;;;;9.00;6.20;;;;;;;5.55;82.17;99321.63;217632;1261;139850;-70
2024/04/04 02:46:20;;;;;;;15.10;7.90;;;;;;;5.53;81.92;99316.88;218282;1258;140088;-68
2024/04/04 02:51:23;;;;;;;12.70;7.00;;;;;;;5.52;82.26;99315.87;217203;1258;139628;-68
2024/04/04 02:56:26;;;;;;;12.10;6.80;;;;;;;5.51;82.74;99314.63;217164;1257;139641;-70
2024/04/04 03:01:30;;;;;;;12.20;7.30;;;;;;;5.50;82.92;99312.56;217438;1263;139485;-68
2024/04/04 03:06:34;;;;;;;10.70;5.90;;;;;;;5.52;83.04;99314.03;217821;1260;139920;-69
2024/04/04 03:11:37;;;;;;;6.80;5.50;;;;;;;5.58;83.22;99311.16;217401;1263;140756;-70
2024/04/04 03:16:41;;;;;;;10.30;6.70;;;;;;;5.62;83.02;99310.65;217244;1261;139357;-71
2024/04/04 03:21:43;;;;;;;8.70;6.60;;;;;;;5.70;83.55;99315.66;217137;1259;139643;-71
2024/04/04 03:26:46;;;;;;;9.30;5.80;;;;;;;5.78;83.68;99313.90;217898;1260;140729;-71
2024/04/04 03:31:56;;;;;;;10.70;7.60;;;;;;;5.80;83.59;99308.71;218231;1260;140837;-72
2024/04/04 03:37:02;;;;;;;7.20;6.10;;;;;;;5.85;84.01;99312.08;217467;1260;140454;-73
2024/04/04 03:42:05;;;;;;;7.60;6.60;;;;;;;5.91;84.08;99315.41;217663;1261;141407;-73
2024/04/04 03:47:08;;;;;;;10.30;8.30;;;;;;;5.94;84.04;99310.99;217366;1260;140095;-73
2024/04/04 03:52:10;;;;;;;12.10;8.50;;;;;;;5.98;84.06;99309.63;218527;1258;140710;-75
2024/04/04 03:57:18;;;;;;;10.70;7.60;;;;;;;6.01;83.84;99304.77;219236;1257;141666;-72
2024/04/04 04:02:20;;;;;;;11.60;7.40;;;;;;;6.06;84.47;99312.91;217473;1261;139422;-71
2024/04/04 04:07:22;;;;;;;8.70;7.30;;;;;;;6.10;84.43;99312.52;216960;1262;139727;-72
2024/04/04 04:12:25;;;;;;;10.80;6.70;;;;;;;6.11;84.69;99309.80;217442;1257;140152;-69
2024/04/04 04:17:27;;;;;;;10.00;7.10;;;;;;;6.14;84.93;99309.40;217185;1263;140450;-72
2024/04/04 04:22:30;;;;;;;13.00;9.20;;;;;;;6.18;84.73;99312.47;218144;1260;140491;-70
2024/04/04 04:27:33;;;;;;;15.50;8.70;;;;;;;6.21;84.93;99317.25;217739;1261;140661;-70
2024/04/04 04:32:35;;;;;;;10.10;7.60;;;;;;;6.24;85.18;99320.89;217237;1263;139241;-71
2024/04/04 04:37:38;;;;;;;14.50;8.10;;;;;;;6.25;85.17;99314.69;217296;1258;139007;-70
2024/04/04 04:42:43;;;;;;;10.80;7.90;;;;;;;6.27;85.71;99311.74;217155;1261;140093;-71
2024/04/04 04:47:46;;;;;;;10.40;6.80;;;;;;;6.33;85.77;99308.32;217873;1257;139570;-70
2024/04/04 04:52:50;;;;;;;15.30;9.30;;;;;;;6.38;85.62;99306.65;217024;1257;141782;-70
2024/04/04 04:57:52;;;;;;;12.20;7.30;;;;;;;6.44;85.81;99308.50;216953;1258;362257;-69
2024/04/04 05:02:54;;;;;;;12.30;8.00;;;;;;;6.54;86.61;99313.66;217320;1262;140180;-70
2024/04/04 05:07:57;;;;;;;11.70;8.00;;;;;;;6.62;86.40;99322.07;217386;1261;139774;-70
2024/04/04 05:13:01;;;;;;;12.90;9.20;;;;;;;6.68;86.26;99315.16;217125;1257;141000;-71
2024/04/04 05:18:05;;;;;;;15.00;8.60;;;;;;;6.75;86.74;99312.91;217441;1257;140140;-70
2024/04/04 05:23:07;;;;;;;13.60;8.60;;;;;;;6.87;87.18;99311.56;217975;1257;140955;-70
2024/04/04 05:28:10;;;;;;;18.30;11.00;;;;;;;7.01;87.41;99313.15;218021;1257;140668;-70
2024/04/04 05:33:13;;;;;;;20.00;10.40;;;;;;;7.14;87.04;99314.99;218776;1259;139735;-71
2024/04/04 05:38:15;;;;;;;17.10;9.70;;;;;;;7.28;86.79;99317.20;218221;1258;139937;-71
2024/04/04 05:43:18;;;;;;;16.00;9.80;;;;;;;7.43;87.03;99321.31;217700;1257;139603;-72
2024/04/04 05:48:21;;;;;;;15.00;9.30;;;;;;;7.63;87.04;99321.89;217480;1260;140751;-70
2024/04/04 05:53:24;;;;;;;12.60;9.20;;;;;;;7.76;86.84;99320.60;218396;1257;140374;-71
2024/04/04 05:58:27;;;;;;;12.20;8.80;;;;;;;7.87;86.78;99316.13;217472;1257;140716;-75
2024/04/04 06:03:30;;;;;;;13.50;9.50;;;;;;;7.98;87.00;99313.13;218224;1259;139601;-72
2024/04/04 06:08:34;;;;;;;11.20;8.20;;;;;;;8.08;86.91;99314.86;217653;1258;141029;-72
2024/04/04 06:13:37;;;;;;;14.50;10.30;;;;;;;8.18;87.21;99313.81;217373;1261;140742;-70
2024/04/04 06:18:40;;;;;;;14.80;9.90;;;;;;;8.30;87.16;99321.48;217958;1259;140514;-70
2024/04/04 06:23:42;;;;;;;14.40;9.30;;;;;;;8.42;87.54;99323.28;217223;1262;139436;-70
2024/04/04 06:28:46;;;;;;;13.10;9.40;;;;;;;8.53;87.24;99328.86;218327;1258;140784;-70
2024/04/04 06:33:49;;;;;;;14.60;11.20;;;;;;;8.63;87.40;99337.69;217186;1258;139669;-71
2024/04/04 06:38:54;;;;;;;15.80;10.40;;;;;;;8.71;87.40;99346.27;217733;1257;141172;-71
2024/04/04 06:43:58;;;;;;;14.30;10.30;;;;;;;8.78;87.34;99347.21;217315;1258;139936;-71
2024/04/04 06:49:01;;;;;;;12.90;8.10;;;;;;;8.87;87.40;99350.92;217186;1259;140585;-72
2024/04/04 06:54:04;;;;;;;14.10;8.90;;;;;;;9.03;87.57;99342.55;217406;1262;140584;-69
2024/04/04 06:59:07;;;;;;;10.90;7.60;;;;;;;9.29;87.75;99336.80;217906;1260;140324;-70
2024/04/04 07:04:10;;;;;;;15.00;8.70;;;;;;;9.59;87.76;99339.57;217507;1259;140017;-70
2024/04/04 07:09:13;;;;;;;13.10;8.30;;;;;;;9.88;87.44;99341.73;217564;1259;140226;-71
2024/04/04 07:14:16;;;;;;;15.40;10.30;;;;;;;10.16;86.96;99349.84;217356;1257;139649;-70
2024/04/04 07:19:19;;;;;;;14.40;8.80;;;;;;;10.40;86.96;99352.86;217201;1258;140507;-71
2024/04/04 07:24:22;;;;;;;13.00;8.20;;;;;;;10.62;86.80;99352.40;217547;1262;140036;-72
2024/04/04 07:29:24;;;;;;;12.30;7.40;;;;;;;10.85;86.51;99356.03;217241;1259;141062;-70
2024/04/04 07:34:26;;;;;;;13.20;7.90;;;;;;;11.32;86.60;99354.86;218151;1257;140023;-71
2024/04/04 07:39:33;;;;;;;12.50;7.70;;;;;;;11.98;86.69;99356.88;218756;1258;139988;-71
2024/04/04 07:44:38;;;;;;;12.50;7.50;;;;;;;12.49;85.42;99357.27;218236;1261;140359;-70
2024/04/04 07:49:40;;;;;;;11.00;6.00;;;;;;;12.93;84.80;99351.89;217325;1260;140147;-70
2024/04/04 07:54:44;;;;;;;8.00;5.70;;;;;;;13.52;84.22;99342.16;217507;1257;140263;-72
2024/04/04 07:59:48;;;;;;;5.90;5.30;;;;;;;14.09;83.18;99341.62;217469;1259;140018;-73
2024/04/04 08:04:52;;;;;;;6.30;4.60;;;;;;;14.83;83.11;99340.67;217299;1263;141661;-71
2024/04/04 08:09:54;;;;;;;7.20;4.90;;;;;;;15.25;80.79;99338.58;217332;1262;139720;-72
2024/04/04 08:14:58;;;;;;;9.00;5.10;;;;;;;15.40;79.29;99336.67;216839;1259;141236;-74
2024/04/04 08:20:02;;;;;;;6.50;4.70;;;;;;;15.56;78.37;99335.17;217331;1259;140357;-74
2024/04/04 08:25:05;;;;;;;4.90;4.30;;;;;;;15.59;76.97;99334.73;217616;1259;140778;-74
2024/04/04 08:30:08;;;;;;;7.30;4.00;;;;;;;15.84;76.80;99331.46;217240;1262;139990;-73
2024/04/04 08:35:13;;;;;;;5.80;3.90;;;;;;;16.05;76.00;99332.77;217353;1257;140854;-73
2024/04/04 08:40:16;;;;;;;6.20;3.80;;;;;;;16.06;74.84;99331.48;217504;1260;140669;-73
2024/04/04 08:45:21;;;;;;;3.20;2.70;;;;;;;16.07;74.45;99335.34;217353;1259;140427;-73
2024/04/04 08:50:24;;;;;;;3.70;3.40;;;;;;;16.03;73.30;99343.27;217956;1259;140242;-73
2024/04/04 08:55:43;;;;;;;;;;;;;;;15.93;72.64;99353.23;217405;1258;140959;-72
2024/04/04 09:00:47;;;;;;;5.80;3.00;;;;;;;15.82;72.40;99358.30;218048;1257;127821;-73
2024/04/04 09:05:50;;;;;;;4.70;3.60;;;;;;;15.73;72.14;99352.27;217316;1259;139618;-70
2024/04/04 09:11:00;;;;;;;3.40;3.10;;;;;;;15.78;71.87;99353.92;219166;1258;140571;-72
2024/04/04 09:16:03;;;;;;;6.40;3.70;;;;;;;15.76;71.32;99356.19;218212;1258;140175;-72
2024/04/04 09:21:07;;;;;;;4.10;3.00;;;;;;;15.64;71.06;99355.91;217263;1258;139861;-74
2024/04/04 09:26:09;;;;;;;4.40;3.00;;;;;;;15.54;70.42;99350.00;219118;1259;139671;-70
2024/04/04 09:31:19;;;;;;;3.30;2.70;;;;;;;15.61;70.40;99338.85;218162;1260;142103;-70
2024/04/04 09:36:25;;;;;;;4.00;3.10;;;;;;;15.90;70.66;99338.77;219476;1258;140170;-70
2024/04/04 09:41:29;;;;;;;3.30;2.30;;;;;;;16.45;70.86;99342.61;218337;1259;140565;-72
2024/04/04 09:46:38;;;;;;;3.30;3.00;;;;;;;16.82;70.54;99342.40;219836;1259;140689;-74
2024/04/04 09:51:42;;;;;;;5.00;2.90;;;;;;;17.29;69.82;99341.64;218701;1259;140387;-75
2024/04/04 09:56:47;;;;;;;4.40;2.50;;;;;;;17.94;69.40;99335.29;217478;1257;141826;-74
2024/04/04 10:01:50;;;;;;;4.60;2.80;;;;;;;17.96;67.01;99328.95;217247;1262;139748;-73
2024/04/04 10:06:56;;;;;;;2.40;2.20;;;;;;;17.83;66.75;99332.21;217478;1259;139409;-74
2024/04/04 10:12:10;;;;;;;4.70;2.30;;;;;;;17.67;66.09;99332.86;217458;1259;139779;-73
2024/04/04 10:17:15;;;;;;;5.30;2.50;;;;;;;17.29;65.80;99335.84;217367;1262;139051;-74
2024/04/04 10:22:24;;;;;;;3.50;2.00;;;;;;;17.07;65.76;99335.55;217342;1262;141788;-74
2024/04/04 10:27:27;;;;;;;2.40;1.80;;;;;;;16.99;65.80;99329.23;217406;1257;139699;-74
2024/04/04 10:32:30;;;;;;;6.20;2.60;;;;;;;16.93;65.35;99331.07;217889;1260;139721;-73
2024/04/04 10:37:33;;;;;;;1.70;1.50;;;;;;;16.81;65.17;99334.70;217567;1259;140165;-73
2024/04/04 10:42:36;;;;;;;1.20;1.10;;;;;;;16.89;65.36;99333.58;217406;1260;140379;-73
2024/04/04 10:47:38;;;;;;;2.00;1.60;;;;;;;17.07;64.88;99334.00;217636;1257;139716;-72
2024/04/04 10:52:41;;;;;;;3.30;1.60;;;;;;;17.07;64.39;99335.08;217781;1259;140229;-72
2024/04/04 10:57:53;;;;;;;3.20;1.70;;;;;;;17.08;64.06;99338.13;217507;1259;139103;-73
2024/04/04 11:02:58;;;;;;;1.60;1.20;;;;;;;16.96;63.57;99331.48;218461;1259;139747;-72
2024/04/04 11:08:05;;;;;;;4.10;1.40;;;;;;;17.03;63.52;99330.06;217061;1259;139450;-72
2024/04/04 11:13:09;;;;;;;1.90;1.80;;;;;;;17.31;63.61;99330.80;217900;1257;139264;-73
2024/04/04 11:18:13;;;;;;;2.00;1.30;;;;;;;17.58;63.02;99325.71;217469;1261;140013;-72
2024/04/04 11:23:16;;;;;;;1.70;1.60;;;;;;;17.80;62.91;99322.81;217971;1259;139573;-72
2024/04/04 11:28:21;;;;;;;1.60;1.50;;;;;;;17.87;62.33;99323.21;217285;1259;140766;-71
2024/04/04 11:33:23;;;;;;;1.70;1.60;;;;;;;17.88;61.69;99324.11;217690;1261;139196;-72
2024/04/04 11:38:26;;;;;;;1.30;1.10;;;;;;;18.18;61.61;99325.68;217372;1259;139974;-73
2024/04/04 11:43:31;;;;;;;2.20;2.00;;;;;;;18.47;61.17;99327.80;217693;1257;139500;-72
2024/04/04 11:48:38;;;;;;;1.90;1.80;;;;;;;18.34;60.34;99331.91;218410;1258;138851;-73
2024/04/04 11:53:42;;;;;;;2.80;1.60;;;;;;;18.28;60.35;99330.71;217293;1259;139085;-72
2024/04/04 11:58:45;;;;;;;1.90;1.50;;;;;;;18.43;60.40;99327.91;217730;1261;139305;-72
2024/04/04 12:03:48;;;;;;;1.30;1.30;;;;;;;18.40;59.76;99330.27;217557;1260;139337;-72
2024/04/04 12:08:51;;;;;;;2.50;1.50;;;;;;;18.32;59.64;99336.48;217089;1262;139932;-74
2024/04/04 12:13:59;;;;;;;2.40;2.00;;;;;;;18.14;59.58;99332.23;217252;1259;140634;-72
2024/04/04 12:24:22;;;;;;;2.20;1.30;;;;;;;18.01;59.26;99329.52;217418;1259;139194;-73
2024/04/04 12:29:24;;;;;;;2.00;1.80;;;;;;;17.81;59.32;99320.42;217516;1262;139498;-72
2024/04/04 12:34:27;;;;;;;4.70;1.60;;;;;;;17.78;59.37;99313.19;217213;1259;138896;-73
2024/04/04 12:39:30;;;;;;;1.60;1.40;;;;;;;17.85;59.38;99316.61;217258;1258;139725;-74
2024/04/04 12:44:33;;;;;;;1.60;1.50;;;;;;;17.81;59.31;99316.55;217271;1259;140007;-76
2024/04/04 12:49:37;;;;;;;4.90;2.00;;;;;;;17.67;59.28;99320.73;217566;1261;139551;-75
2024/04/04 12:54:40;;;;;;;1.90;1.40;;;;;;;17.35;59.24;99317.44;217221;1262;139185;-75
2024/04/04 12:59:42;;;;;;;1.30;1.20;;;;;;;17.23;59.81;99317.64;217277;1262;138951;-77
2024/04/04 13:04:46;;;;;;;2.20;1.40;;;;;;;17.30;60.13;99312.59;217854;1259;139356;-71
2024/04/04 13:09:49;;;;;;;1.60;1.40;;;;;;;17.43;59.91;99303.69;219646;1261;139378;-69
2024/04/04 13:14:52;;;;;;;1.20;1.10;;;;;;;17.71;59.57;99300.58;218551;1260;161709;-70
2024/04/04 13:19:55;;;;;;;1.60;1.50;;;;;;;17.85;59.27;99307.16;219538;1259;141126;-69
2024/04/04 13:24:57;;;;;;;2.00;1.50;;;;;;;17.76;59.08;99304.81;217238;1262;139561;-69
2024/04/04 13:30:00;;;;;;;1.60;1.00;;;;;;;17.73;59.24;99303.66;217797;1260;139745;-69
2024/04/04 13:35:05;;;;;;;1.10;1.10;;;;;;;17.73;59.05;99303.27;218042;1262;140040;-71
2024/04/04 13:40:09;;;;;;;3.10;1.10;;;;;;;17.89;59.08;99301.94;217789;1260;140709;-70
2024/04/04 13:45:12;;;;;;;0.70;0.70;;;;;;;18.07;58.90;99285.41;217507;1262;139915;-71
2024/04/04 13:50:16;;;;;;;1.20;1.10;;;;;;;18.03;58.67;99273.24;217503;1259;140775;-71
2024/04/04 13:55:19;;;;;;;0.90;0.90;;;;;;;18.12;58.73;99267.84;216844;1261;139044;-69
2024/04/04 14:00:22;;;;;;;1.00;0.90;;;;;;;18.13;58.77;99261.14;217088;1259;139958;-70
2024/04/04 14:05:25;;;;;;;5.80;0.80;;;;;;;18.18;58.69;99260.73;217211;1259;139026;-70
2024/04/04 14:10:29;;;;;;;0.90;0.80;;;;;;;18.24;58.09;99255.30;217390;1262;139163;-72
2024/04/04 14:15:32;;;;;;;1.10;1.00;;;;;;;17.93;57.96;99252.95;218280;1263;139618;-69
2024/04/04 14:20:35;;;;;;;0.90;0.90;;;;;;;17.80;58.15;99247.71;216855;1260;141178;-71
2024/04/04 14:25:38;;;;;;;0.70;0.70;;;;;;;17.76;58.47;99247.98;217144;1262;139326;-69
2024/04/04 14:30:40;;;;;;;2.40;1.00;;;;;;;17.57;58.20;99245.77;216816;1259;139967;-69
2024/04/04 14:35:43;;;;;;;3.60;0.60;;;;;;;17.41;58.62;99245.38;217463;1263;139323;-70
2024/04/04 14:40:45;;;;;;;0.70;0.70;;;;;;;17.40;58.68;99240.91;217301;1259;139912;-71
2024/04/04 14:45:52;;;;;;;1.10;0.80;;;;;;;17.39;58.73;99235.05;217536;1262;139685;-71
2024/04/04 14:50:55;;;;;;;0.60;0.60;;;;;;;17.34;58.94;99228.61;217234;1260;142625;-70
2024/04/04 14:56:11;;;;;;;0.80;0.80;;;;;;;17.17;59.23;99232.75;217962;1262;139799;-71
2024/04/04 15:01:13;;;;;;;2.50;1.10;;;;;;;17.04;59.54;99242.37;217181;1262;139505;-70
2024/04/04 15:06:16;;;;;;;0.80;0.80;;;;;;;16.94;59.40;99238.71;218202;1260;139711;-70
2024/04/04 15:11:19;;;;;;;8.60;1.60;;;;;;;16.88;59.65;99234.27;216934;1259;140203;-70
2024/04/04 15:16:21;;;;;;;2.30;0.90;;;;;;;16.85;59.86;99225.84;216988;1262;140352;-72
2024/04/04 15:21:23;;;;;;;1.10;1.00;;;;;;;16.76;59.71;99232.37;216916;1262;139868;-72
2024/04/04 15:26:25;;;;;;;0.70;0.70;;;;;;;16.65;59.99;99233.51;217037;1262;139620;-68
2024/04/04 15:31:28;;;;;;;1.10;1.10;;;;;;;16.53;60.15;99226.95;217040;1259;139686;-72
2024/04/04 15:36:32;;;;;;;1.00;0.90;;;;;;;16.39;60.31;99225.16;217018;1259;140261;-71
2024/04/04 15:41:35;;;;;;;0.80;0.60;;;;;;;16.26;60.52;99222.23;217336;1258;139396;-71
2024/04/04 15:46:37;;;;;;;2.10;0.70;;;;;;;16.13;60.57;99222.41;217800;1259;140387;-71
2024/04/04 15:51:39;;;;;;;0.90;0.70;;;;;;;16.02;60.66;99220.73;217181;1260;140813;-69
2024/04/04 15:56:41;;;;;;;1.50;1.40;;;;;;;15.91;61.13;99219.86;216965;1260;139147;-69
2024/04/04 16:01:45;;;;;;;1.00;1.00;;;;;;;15.85;61.34;99217.36;216948;1259;139824;-69
2024/04/04 16:06:48;;;;;;;2.10;1.30;;;;;;;15.73;61.44;99217.64;217136;1262;139964;-70
2024/04/04 16:11:51;;;;;;;1.30;1.20;;;;;;;15.66;61.60;99224.69;217140;1258;139846;-69
2024/04/04 16:16:53;;;;;;;0.90;0.90;;;;;;;15.58;61.65;99221.84;217562;1262;139468;-71
2024/04/04 16:21:56;;;;;;;1.00;1.00;;;;;;;15.52;61.97;99219.19;217027;1262;139569;-70
2024/04/04 16:27:00;;;;;;;1.90;1.30;;;;;;;15.45;62.22;99209.98;217728;1259;139067;-70
2024/04/04 16:32:03;;;;;;;2.10;1.00;;;;;;;15.38;62.31;99212.55;217004;1259;139947;-70
2024/04/04 16:37:06;;;;;;;1.00;1.00;;;;;;;15.30;62.58;99219.90;216975;1259;139314;-70
2024/04/04 16:42:08;;;;;;;1.00;0.90;;;;;;;15.19;62.62;99212.67;217444;1261;140104;-71
2024/04/04 16:47:12;;;;;;;2.10;1.90;;;;;;;15.04;62.82;99208.77;217308;1262;140202;-69
2024/04/04 16:52:15;;;;;;;1.90;1.50;;;;;;;14.94;63.14;99211.48;217157;1261;140416;-72
2024/04/04 16:57:18;;;;;;;2.50;2.30;;;;;;;14.89;63.61;99208.59;216890;1262;450960;-70
2024/04/04 17:02:21;;;;;;;2.30;2.00;;;;;;;14.81;63.90;99199.17;217047;1260;139628;-73
2024/04/04 17:07:25;;;;;;;3.00;2.60;;;;;;;14.71;64.12;99198.94;217056;1258;141530;-71
2024/04/04 17:12:27;;;;;;;2.90;2.60;;;;;;;14.62;64.49;99206.98;217366;1261;142514;-72
2024/04/04 17:17:30;;;;;;;2.30;2.00;;;;;;;14.56;65.04;99212.58;217018;1262;141132;-70
2024/04/04 17:22:33;;;;;;;2.70;1.90;;;;;;;14.49;65.09;99212.07;217140;1262;140654;-70
2024/04/04 17:27:35;;;;;;;1.40;1.40;;;;;;;14.41;65.23;99208.53;217479;1260;141151;-70
2024/04/04 17:32:38;;;;;;;2.20;1.70;;;;;;;14.31;65.61;99207.91;216898;1259;139828;-72
2024/04/04 17:37:40;;;;;;;1.70;1.40;;;;;;;14.23;65.81;99202.17;216993;1262;141056;-70
2024/04/04 17:42:43;;;;;;;2.50;2.30;;;;;;;14.17;65.97;99199.93;216889;1259;141147;-70
2024/04/04 17:47:45;;;;;;;4.00;2.30;;;;;;;14.11;65.96;99199.95;217113;1259;140692;-70
2024/04/04 17:52:48;;;;;;;4.00;2.50;;;;;;;14.05;66.07;99199.17;216969;1262;140990;-69
2024/04/04 17:57:51;;;;;;;2.80;2.20;;;;;;;14.02;65.95;99194.23;217055;1259;142259;-69
2024/04/04 18:03:00;;;;;;;2.60;2.20;;;;;;;13.97;66.01;99192.70;217155;1262;139675;-69
2024/04/04 18:08:05;;;;;;;2.50;1.60;;;;;;;13.93;66.08;99199.66;217852;1258;139827;-72
2024/04/04 18:13:11;;;;;;;2.80;2.40;;;;;;;13.93;66.38;99210.53;217440;1259;139704;-69
2024/04/04 18:18:14;;;;;;;4.40;2.30;;;;;;;13.91;66.75;99211.55;217447;1258;141093;-70
2024/04/04 18:23:17;;;;;;;4.30;2.70;;;;;;;13.80;67.02;99212.36;217546;1259;140473;-68
2024/04/04 18:28:20;;;;;;;6.10;2.50;;;;;;;13.69;67.11;99215.31;217132;1259;141894;-70
2024/04/04 18:33:23;;;;;;;3.60;3.20;;;;;;;13.60;67.09;99210.91;217279;1262;141824;-71
2024/04/04 18:38:26;;;;;;;3.60;2.80;;;;;;;13.57;67.62;99219.58;217561;1259;140676;-69
2024/04/04 18:43:29;;;;;;;2.30;2.10;;;;;;;13.46;67.89;99214.64;217214;1262;140263;-70
2024/04/04 18:48:32;;;;;;;2.80;2.50;;;;;;;13.37;68.43;99217.64;217024;1260;211758;-68
2024/04/04 18:53:34;;;;;;;8.00;2.40;;;;;;;13.30;68.56;99222.55;217538;1263;151579;-70
2024/04/04 18:58:36;;;;;;;3.40;2.50;;;;;;;13.27;68.87;99229.98;217064;1261;140970;-70
2024/04/04 19:03:40;;;;;;;2.70;2.50;;;;;;;13.22;69.22;99233.81;216913;1262;140338;-70
2024/04/04 19:08:43;;;;;;;2.50;2.30;;;;;;;13.10;69.67;99232.33;217115;1261;143201;-69
2024/04/04 19:13:47;;;;;;;3.70;3.30;;;;;;;12.98;70.28;99235.00;218822;1259;142989;-69
2024/04/04 19:18:50;;;;;;;2.70;2.30;;;;;;;12.83;70.84;99229.70;217901;1261;142119;-72
2024/04/04 19:23:53;;;;;;;2.30;2.00;;;;;;;12.67;71.50;99232.25;218105;1259;139615;-72
2024/04/04 19:29:00;;;;;;;3.00;2.60;;;;;;;12.51;72.57;99227.20;217313;1262;142003;-71
2024/04/04 19:34:04;;;;;;;2.50;2.30;;;;;;;12.34;73.14;99220.59;218392;1262;140584;-71
2024/04/04 19:39:08;;;;;;;2.60;2.40;;;;;;;12.25;73.82;99221.00;217207;1262;142220;-71
2024/04/04 19:44:11;;;;;;;3.30;2.30;;;;;;;12.21;74.59;99219.13;217615;1263;140855;-70
2024/04/04 19:49:14;;;;;;;2.80;2.50;;;;;;;12.12;75.11;99214.52;217537;1262;140624;-70
2024/04/04 19:54:16;;;;;;;3.00;2.70;;;;;;;12.04;75.82;99214.63;216881;1260;154942;-69
2024/04/04 19:59:18;;;;;;;3.90;3.40;;;;;;;12.00;76.27;99211.86;216874;1263;141165;-72
2024/04/04 20:04:21;;;;;;;4.30;4.00;;;;;;;11.96;76.60;99203.98;216910;1262;140312;-72
2024/04/04 20:09:24;;;;;;;6.00;3.70;;;;;;;11.88;77.36;99190.00;216847;1264;140379;-69
2024/04/04 20:14:26;;;;;;;4.40;3.30;;;;;;;11.79;77.53;99189.60;219565;1261;142724;-70
2024/04/04 20:19:30;;;;;;;4.40;3.60;;;;;;;11.72;78.12;99186.52;217141;1260;141303;-69
2024/04/04 20:24:33;;;;;;;5.00;3.60;;;;;;;11.68;78.20;99178.75;216717;1263;141095;-70
2024/04/04 20:29:35;;;;;;;4.10;3.80;;;;;;;11.61;78.35;99175.92;217105;1257;139932;-72
2024/04/04 20:34:39;;;;;;;6.60;5.30;;;;;;;11.56;78.77;99173.92;217097;1258;141397;-70
2024/04/04 20:39:42;;;;;;;4.60;3.90;;;;;;;11.52;79.33;99174.84;216963;1261;139973;-70
2024/04/04 20:44:44;;;;;;;5.60;3.70;;;;;;;11.51;79.61;99171.31;217098;1265;140658;-70
2024/04/04 20:49:47;;;;;;;5.70;4.90;;;;;;;11.48;80.07;99175.23;217029;1263;141541;-70
2024/04/04 20:54:49;;;;;;;5.60;5.00;;;;;;;11.47;80.21;99172.13;217017;1260;139943;-72
2024/04/04 20:59:52;;;;;;;7.80;4.70;;;;;;;11.44;80.10;99176.58;216988;1263;140234;-71
2024/04/04 21:04:54;;;;;;;4.70;4.20;;;;;;;11.43;80.45;99181.90;217417;1262;140805;-73
2024/04/04 21:09:56;;;;;;;8.50;4.10;;;;;;;11.40;80.73;99188.60;217187;1262;140446;-70
2024/04/04 21:14:58;;;;;;;4.20;3.80;;;;;;;11.42;80.75;99195.40;217072;1263;140526;-68
2024/04/04 21:20:05;;;;;;;5.20;2.80;;;;;;;11.41;80.83;99195.45;217037;1263;141330;-70
2024/04/04 21:25:08;;;;;;;;;;;;;;;11.39;80.99;99192.59;216916;1260;140628;-72
2024/04/04 21:30:10;;;;;;;4.10;3.70;;;;;;;11.32;81.17;99196.85;218338;1261;127289;-71
2024/04/04 21:35:13;;;;;;;4.20;3.30;;;;;;;11.29;81.32;99196.15;217268;1263;141370;-71
2024/04/04 21:40:15;;;;;;;4.40;3.50;;;;;;;11.29;81.68;99193.33;217849;1257;142538;-72
2024/04/04 21:45:18;;;;;;;8.00;3.70;;;;;;;11.30;81.68;99195.30;217085;1258;142301;-71
2024/04/04 21:50:20;;;;;;;4.20;3.80;;;;;;;11.27;81.53;99193.14;217127;1262;139516;-70
2024/04/04 21:55:22;;;;;;;5.70;3.20;;;;;;;11.22;81.66;99189.23;218347;1257;142060;-70
2024/04/04 22:00:30;;;;;;;5.70;2.50;;;;;;;11.20;81.95;99193.75;217059;1263;142153;-70
2024/04/04 22:05:33;;;;;;;4.30;3.00;;;;;;;11.19;82.15;99192.41;217217;1261;140026;-69
2024/04/04 22:10:35;;;;;;;3.30;3.00;;;;;;;11.21;82.28;99191.96;217150;1260;139790;-70
2024/04/04 22:15:39;;;;;;;4.40;3.30;;;;;;;11.24;82.41;99194.60;217105;1260;139927;-70
2024/04/04 22:20:42;;;;;;;4.20;3.40;;;;;;;11.27;82.68;99198.90;217115;1261;140970;-70
2024/04/04 22:25:44;;;;;;;5.40;3.50;;;;;;;11.33;82.90;99202.13;218112;1257;141417;-70
2024/04/04 22:30:56;;;;;;;5.50;2.90;;;;;;;11.37;82.78;99203.30;219575;1258;141015;-70
2024/04/04 22:35:59;;;;;;;4.10;3.00;;;;;;;11.42;82.98;99207.09;217790;1260;140640;-71
2024/04/04 22:41:03;;;;;;;2.90;2.10;;;;;;;11.45;82.98;99211.28;218716;1261;141041;-70
2024/04/04 22:46:05;;;;;;;4.50;3.80;;;;;;;11.50;83.33;99218.48;217328;1261;140166;-68
2024/04/04 22:51:08;;;;;;;4.60;3.60;;;;;;;11.56;83.05;99218.06;217252;1262;141454;-70
2024/04/04 22:56:11;;;;;;;3.80;2.70;;;;;;;11.60;83.11;99214.58;217195;1260;140289;-70
2024/04/04 23:01:14;;;;;;;4.30;2.10;;;;;;;11.63;83.21;99222.60;217385;1260;139995;-71
2024/04/04 23:06:16;;;;;;;3.70;2.50;;;;;;;11.66;83.35;99224.76;218444;1257;141393;-70
2024/04/04 23:11:18;;;;;;;3.90;2.60;;;;;;;11.68;83.35;99224.94;217437;1260;139804;-71
2024/04/04 23:16:21;;;;;;;2.70;2.50;;;;;;;11.71;83.37;99223.84;217170;1259;222481;-71
2024/04/04 23:21:24;;;;;;;2.00;1.30;;;;;;;11.75;83.41;99240.33;217208;1257;140811;-69